Time;durP1;ratioP1;P1;durP2;ratioP2;P2;SDS_P1;SDS_P2;PMS_P1;PMS_P2;Temp;Humidity;BMP_temperature;BMP_pressure;BME280_temperature;BME280_humidity;BME280_pressure;Samples;Min_cycle;Max_cycle;Signal;HPM_P1;HPM_P2
2021/04/23 00:00:21;;;;;;;39.10;14.65;;;;;;;7.24;100.00;101444.73;1708155;84;21240;-92
2021/04/23 00:02:47;;;;;;;38.90;15.88;;;;;;;7.17;100.00;101446.62;1706662;84;21407;-91
2021/04/23 00:05:16;;;;;;;38.23;14.10;;;;;;;7.13;100.00;101444.08;1708299;84;21216;-92
2021/04/23 00:07:41;;;;;;;38.70;14.43;;;;;;;7.14;100.00;101441.17;1708494;84;21203;-92
2021/04/23 00:10:12;;;;;;;35.58;14.13;;;;;;;7.11;100.00;101444.28;1708242;84;21231;-92
2021/04/23 00:12:39;;;;;;;43.58;14.65;;;;;;;7.11;100.00;101449.64;1708296;84;21195;-92
2021/04/23 00:15:12;;;;;;;45.00;16.00;;;;;;;7.10;100.00;101449.34;1708362;84;21156;-91
2021/04/23 00:17:39;;;;;;;;;;;;;;;7.12;100.00;101455.33;1710812;84;21179;-92
2021/04/23 00:20:13;;;;;;;39.20;15.00;;;;;;;7.07;100.00;101450.30;1708746;83;20259;-92
2021/04/23 00:22:39;;;;;;;40.38;13.90;;;;;;;7.05;100.00;101447.30;1655071;86;21247;-92
2021/04/23 00:25:08;;;;;;;35.68;14.35;;;;;;;7.04;100.00;101445.66;1655222;86;21176;-91
2021/04/23 00:27:35;;;;;;;35.63;14.13;;;;;;;7.03;100.00;101450.73;1655142;86;21283;-92
2021/04/23 00:30:05;;;;;;;40.90;13.53;;;;;;;7.00;100.00;101449.83;1601416;89;21601;-91
2021/04/23 00:32:31;;;;;;;35.88;13.13;;;;;;;6.97;100.00;101441.37;1587615;89;21184;-92
2021/04/23 00:34:57;;;;;;;41.53;14.47;;;;;;;6.97;100.00;101442.71;1608181;89;21227;-92
2021/04/23 00:37:23;;;;;;;39.18;13.88;;;;;;;6.96;100.00;101439.73;1608361;89;21248;-92
2021/04/23 00:39:48;;;;;;;43.83;14.98;;;;;;;6.92;100.00;101442.03;1585890;89;21687;-93
2021/04/23 00:42:15;;;;;;;39.63;13.85;;;;;;;6.92;100.00;101443.89;1608178;89;21097;-92
2021/04/23 00:44:41;;;;;;;38.23;13.98;;;;;;;6.90;100.00;101443.27;1616047;88;21754;-92
2021/04/23 00:47:07;;;;;;;41.58;15.50;;;;;;;6.86;100.00;101440.73;1606114;88;21223;-92
2021/04/23 00:49:33;;;;;;;37.98;15.23;;;;;;;6.88;100.00;101433.28;1601548;89;21224;-91
2021/04/23 00:52:02;;;;;;;34.27;14.25;;;;;;;6.90;100.00;101436.58;1602019;89;21917;-92
2021/04/23 00:54:30;;;;;;;34.88;13.72;;;;;;;6.89;100.00;101433.08;1601640;89;21261;-92
2021/04/23 00:56:56;;;;;;;35.73;14.33;;;;;;;6.95;100.00;101446.14;1601772;89;21196;-91
2021/04/23 00:59:23;;;;;;;35.00;14.03;;;;;;;6.97;100.00;101444.05;1621112;85;21181;-90
2021/04/23 01:01:57;;;;;;;36.85;15.20;;;;;;;7.04;100.00;101439.48;1750314;82;21176;-90
2021/04/23 01:04:28;;;;;;;36.00;13.93;;;;;;;7.01;100.00;101442.60;1697182;84;22125;-91
2021/04/23 01:06:51;;;;;;;35.38;14.53;;;;;;;6.96;100.00;101441.08;1693701;84;21187;-91
2021/04/23 01:09:22;;;;;;;31.48;13.72;;;;;;;6.90;100.00;101436.58;1697517;84;20938;-91
2021/04/23 01:11:49;;;;;;;33.58;13.22;;;;;;;6.85;100.00;101431.84;1697322;84;21208;-92
2021/04/23 01:14:16;;;;;;;30.37;12.73;;;;;;;6.87;100.00;101429.78;1711250;83;21247;-90
2021/04/23 01:16:44;;;;;;;32.42;14.07;;;;;;;6.82;100.00;101427.77;1723623;83;22010;-91
2021/04/23 01:19:15;;;;;;;39.03;14.13;;;;;;;6.79;100.00;101430.88;1723449;83;21450;-91
2021/04/23 01:21:42;;;;;;;37.33;13.95;;;;;;;6.77;100.00;101426.77;1712031;83;21069;-91
2021/04/23 01:24:11;;;;;;;37.55;14.35;;;;;;;6.69;100.00;101429.16;1709624;83;21161;-91
2021/04/23 01:26:48;;;;;;;45.35;15.28;;;;;;;6.64;100.00;101427.63;1709458;83;21216;-91
2021/04/23 01:29:17;;;;;;;34.23;13.40;;;;;;;6.64;100.00;101427.63;1707231;83;21242;-91
2021/04/23 01:31:48;;;;;;;31.48;13.58;;;;;;;6.59;100.00;101425.61;1709403;83;21196;-91
2021/04/23 01:34:29;;;;;;;36.80;13.68;;;;;;;6.57;100.00;101428.19;1685605;83;21221;-91
2021/04/23 01:36:57;;;;;;;35.60;12.88;;;;;;;6.56;100.00;101431.91;1669567;85;21186;-91
2021/04/23 01:39:28;;;;;;;37.83;13.68;;;;;;;6.51;100.00;101427.70;1669817;85;21163;-91
2021/04/23 01:41:56;;;;;;;36.45;13.18;;;;;;;6.47;100.00;101435.34;1669622;85;21182;-90
2021/04/23 01:44:23;;;;;;;31.12;13.48;;;;;;;6.44;100.00;101434.92;1669700;85;21144;-91
2021/04/23 01:46:50;;;;;;;31.12;12.78;;;;;;;6.41;100.00;101435.34;1669791;85;21231;-90
2021/04/23 01:49:20;;;;;;;34.45;13.38;;;;;;;6.36;100.00;101428.78;1669907;85;21179;-89
2021/04/23 01:51:54;;;;;;;34.63;13.60;;;;;;;6.31;100.00;101426.42;1669903;85;21656;-92
2021/04/23 01:54:21;;;;;;;37.33;14.55;;;;;;;6.25;100.00;101425.41;1669705;85;21921;-91
2021/04/23 01:56:50;;;;;;;39.80;14.30;;;;;;;6.23;100.00;101426.13;1669852;85;21215;-90
2021/04/23 01:59:18;;;;;;;33.25;14.70;;;;;;;6.24;100.00;101425.64;1669854;85;21167;-90
2021/04/23 02:01:45;;;;;;;40.45;15.40;;;;;;;6.27;100.00;101427.89;1659603;85;21160;-91
2021/04/23 02:04:15;;;;;;;33.78;14.25;;;;;;;6.26;100.00;101424.37;1655099;86;21224;-91
2021/04/23 02:06:44;;;;;;;28.40;13.25;;;;;;;6.26;100.00;101427.56;1655082;86;21183;-91
2021/04/23 02:09:12;;;;;;;39.15;15.40;;;;;;;6.21;100.00;101423.38;1655060;86;21271;-90
2021/04/23 02:11:42;;;;;;;39.58;15.80;;;;;;;6.15;100.00;101425.04;1655129;86;21204;-91
2021/04/23 02:14:08;;;;;;;35.50;14.20;;;;;;;6.07;100.00;101417.23;1660648;85;21183;-91
2021/04/23 02:16:35;;;;;;;39.48;14.68;;;;;;;6.04;100.00;101418.98;1667684;85;21630;-91
2021/04/23 02:19:02;;;;;;;39.58;14.58;;;;;;;6.04;100.00;101418.47;1667569;85;21184;-91
2021/04/23 02:21:28;;;;;;;37.10;14.98;;;;;;;5.97;100.00;101411.47;1674113;84;21677;-91
2021/04/23 02:23:54;;;;;;;36.65;14.78;;;;;;;5.95;100.00;101405.53;1678329;85;21172;-91
2021/04/23 02:26:23;;;;;;;38.48;15.18;;;;;;;5.95;100.00;101412.22;1704612;80;21651;-91
2021/04/23 02:28:53;;;;;;;37.67;14.93;;;;;;;5.94;100.00;101405.20;1750785;80;21148;-92
2021/04/23 02:31:26;;;;;;;35.70;14.23;;;;;;;5.94;100.00;101410.55;1781449;80;21211;-91
2021/04/23 02:33:57;;;;;;;49.03;17.12;;;;;;;5.90;100.00;101409.61;1694725;83;21216;-91
2021/04/23 02:36:24;;;;;;;47.48;17.40;;;;;;;5.89;100.00;101409.83;1694895;84;21204;-90
2021/04/23 02:38:52;;;;;;;46.08;16.48;;;;;;;5.84;100.00;101406.42;1694761;83;21124;-91
2021/04/23 02:41:19;;;;;;;39.95;16.40;;;;;;;5.80;100.00;101406.55;1690836;84;21148;-91
2021/04/23 02:43:51;;;;;;;43.28;16.10;;;;;;;5.82;100.00;101413.02;1694719;84;21237;-90
2021/04/23 02:46:19;;;;;;;48.75;16.42;;;;;;;5.83;100.00;101407.99;1694594;84;21231;-90
2021/04/23 02:48:46;;;;;;;48.33;17.67;;;;;;;5.86;100.00;101412.41;1694805;84;21332;-91
2021/04/23 02:51:17;;;;;;;45.45;16.55;;;;;;;5.84;100.00;101419.80;1694691;84;21155;-90
2021/04/23 02:53:44;;;;;;;48.90;18.60;;;;;;;5.86;100.00;101419.09;1691540;84;21215;-91
2021/04/23 02:56:13;;;;;;;46.02;17.65;;;;;;;5.91;100.00;101415.28;1694785;84;21195;-89
2021/04/23 02:58:39;;;;;;;50.20;17.50;;;;;;;5.93;100.00;101413.75;1694575;84;21148;-90
2021/04/23 03:01:12;;;;;;;51.60;18.25;;;;;;;5.97;100.00;101420.84;1694702;84;21640;-91
2021/04/23 03:03:38;;;;;;;;;;;;;;;6.05;100.00;101417.95;1697277;84;21073;-90
2021/04/23 03:06:05;;;;;;;51.30;20.32;;;;;;;6.12;100.00;101418.25;1694614;84;20472;-90
2021/04/23 03:08:32;;;;;;;49.48;18.77;;;;;;;6.27;100.00;101415.33;1694489;84;21228;-90
2021/04/23 03:11:08;;;;;;;55.50;19.45;;;;;;;6.35;100.00;101419.11;1694650;84;21239;-91
2021/04/23 03:13:33;;;;;;;57.13;19.98;;;;;;;6.47;100.00;101416.59;1694301;84;21195;-91
2021/04/23 03:15:59;;;;;;;52.62;19.60;;;;;;;6.59;100.00;101416.75;1671195;84;21144;-90
2021/04/23 03:18:28;;;;;;;58.35;20.45;;;;;;;6.70;100.00;101416.06;1694556;84;21168;-90
2021/04/23 03:20:57;;;;;;;59.08;19.87;;;;;;;6.80;100.00;101416.44;1703703;82;21836;-91
2021/04/23 03:23:24;;;;;;;56.92;20.62;;;;;;;6.96;100.00;101415.63;1727912;83;21159;-92
2021/04/23 03:25:51;;;;;;;62.53;21.40;;;;;;;7.11;100.00;101423.36;1727771;83;21162;-92
2021/04/23 03:28:17;;;;;;;54.95;21.30;;;;;;;7.26;100.00;101419.36;1727623;83;21231;-91
2021/04/23 03:30:44;;;;;;;60.58;21.80;;;;;;;7.41;100.00;101415.02;1764072;80;21136;-91
2021/04/23 03:33:13;;;;;;;57.65;21.15;;;;;;;7.66;100.00;101416.86;1790132;79;21136;-92
2021/04/23 03:35:41;;;;;;;56.80;21.85;;;;;;;7.78;100.00;101420.46;1790085;79;21148;-91
2021/04/23 03:38:09;;;;;;;54.40;21.48;;;;;;;8.05;100.00;101416.17;1790098;80;21609;-93
2021/04/23 03:40:37;;;;;;;58.45;22.98;;;;;;;8.35;100.00;101412.22;1789746;80;21103;-91
2021/04/23 03:43:05;;;;;;;57.83;22.65;;;;;;;9.01;100.00;101410.05;1790122;80;21160;-92
2021/04/23 03:45:33;;;;;;;55.40;22.07;;;;;;;9.86;100.00;101399.46;1790111;80;21177;-92
2021/04/23 03:47:59;;;;;;;55.08;21.52;;;;;;;10.89;100.00;101402.39;1763656;80;21135;-93
2021/04/23 03:50:29;;;;;;;56.25;21.30;;;;;;;11.94;100.00;101402.73;1790071;80;21144;-92
2021/04/23 03:52:58;;;;;;;51.23;20.08;;;;;;;12.88;100.00;101404.41;1790076;79;21584;-93
2021/04/23 03:55:29;;;;;;;52.83;20.40;;;;;;;13.45;100.00;101400.37;1790035;80;21615;-93
2021/04/23 03:57:57;;;;;;;54.53;21.27;;;;;;;14.81;100.00;101397.81;1790249;80;21438;-93
2021/04/23 04:00:28;;;;;;;48.13;18.40;;;;;;;15.74;100.00;101395.42;1789915;79;21124;-94
2021/04/23 04:02:54;;;;;;;48.73;20.40;;;;;;;15.74;100.00;101395.42;1790299;80;21036;-93
2021/04/23 04:05:20;;;;;;;46.37;19.12;;;;;;;16.80;100.00;101390.67;1785554;80;20973;-92
2021/04/23 04:07:48;;;;;;;46.35;18.67;;;;;;;16.92;100.00;101388.41;1790182;80;21581;-91
2021/04/23 04:10:16;;;;;;;44.95;19.42;;;;;;;16.26;100.00;101387.36;1790022;80;21179;-91
2021/04/23 04:12:42;;;;;;;44.15;18.32;;;;;;;16.95;100.00;101393.28;1790127;79;21212;-92
2021/04/23 04:15:09;;;;;;;52.15;18.62;;;;;;;17.81;100.00;101392.30;1790091;80;21004;-93
2021/04/23 04:17:35;;;;;;;45.23;18.12;;;;;;;18.45;98.73;101390.74;1790197;79;21124;-93
2021/04/23 04:20:04;;;;;;;47.53;18.52;;;;;;;18.73;100.00;101387.08;1790047;79;21215;-93
2021/04/23 04:22:31;;;;;;;36.33;17.45;;;;;;;18.94;95.76;101390.88;1787688;79;22230;-93
2021/04/23 04:24:56;;;;;;;40.35;18.23;;;;;;;19.80;86.01;101392.74;1787163;80;21148;-92
2021/04/23 04:27:23;;;;;;;33.70;16.05;;;;;;;20.31;85.86;101393.09;1787232;80;20965;-92
2021/04/23 04:29:49;;;;;;;38.60;16.65;;;;;;;21.02;67.23;101389.89;1787053;79;21553;-92
2021/04/23 04:32:16;;;;;;;38.55;15.98;;;;;;;21.68;62.80;101393.73;1787109;79;20970;-91
2021/04/23 04:34:43;;;;;;;38.10;16.50;;;;;;;21.33;57.15;101386.66;1787105;79;21231;-93
2021/04/23 04:37:09;;;;;;;27.73;14.25;;;;;;;22.19;64.25;101373.13;1787088;79;21293;-91
2021/04/23 04:39:36;;;;;;;35.75;15.98;;;;;;;22.72;56.35;101376.75;1787205;80;21029;-91
2021/04/23 04:42:02;;;;;;;31.73;15.75;;;;;;;22.70;60.23;101376.25;1787146;79;21144;-91
2021/04/23 04:44:29;;;;;;;31.33;14.25;;;;;;;23.73;53.30;101379.22;1787131;79;21549;-91
2021/04/23 04:46:57;;;;;;;28.52;14.43;;;;;;;24.35;48.82;101375.81;1787115;80;22115;-91
2021/04/23 04:49:23;;;;;;;30.17;14.25;;;;;;;23.81;46.32;101375.63;1786996;79;21569;-92
2021/04/23 04:51:49;;;;;;;25.65;13.40;;;;;;;24.88;47.26;101368.81;1787012;79;20977;-91
2021/04/23 04:54:15;;;;;;;30.57;13.98;;;;;;;25.06;45.94;101371.38;1787044;80;20981;-92
2021/04/23 04:56:40;;;;;;;26.45;13.40;;;;;;;25.93;42.56;101375.98;1787215;80;21065;-92
2021/04/23 04:59:06;;;;;;;32.00;13.58;;;;;;;25.75;42.36;101365.13;1787142;79;21187;-93
2021/04/23 05:01:32;;;;;;;26.52;13.80;;;;;;;26.64;41.48;101358.86;1787170;79;20938;-92
2021/04/23 05:03:58;;;;;;;24.75;12.53;;;;;;;26.04;43.22;101360.56;1786993;80;21187;-92
2021/04/23 05:06:24;;;;;;;24.95;11.73;;;;;;;26.72;41.71;101352.37;1787237;80;20961;-93
2021/04/23 05:08:50;;;;;;;27.13;12.78;;;;;;;27.26;39.38;101353.08;1787088;79;21039;-95
2021/04/23 05:11:17;;;;;;;22.70;12.07;;;;;;;26.84;38.88;101354.30;1787185;79;21506;-92
2021/04/23 05:13:43;;;;;;;24.23;11.93;;;;;;;27.83;37.11;101354.56;1787250;80;21143;-93
2021/04/23 05:16:09;;;;;;;22.30;11.43;;;;;;;28.40;34.41;101353.08;1787119;80;20953;-92
2021/04/23 05:18:35;;;;;;;25.43;11.33;;;;;;;28.50;34.88;101355.33;1786919;80;20997;-92
2021/04/23 05:21:01;;;;;;;27.02;13.65;;;;;;;28.93;34.25;101347.86;1757902;80;21145;-93
2021/04/23 05:23:27;;;;;;;22.05;11.40;;;;;;;29.23;31.99;101351.41;1781658;80;21191;-92
2021/04/23 05:25:53;;;;;;;23.47;11.73;;;;;;;27.75;35.63;101355.52;1781398;80;20974;-95
2021/04/23 05:28:23;;;;;;;22.13;11.30;;;;;;;29.03;32.54;101348.45;1781609;80;21600;-92
2021/04/23 05:30:50;;;;;;;24.67;11.40;;;;;;;28.65;33.34;101355.05;1651374;86;21211;-93
2021/04/23 05:33:16;;;;;;;23.47;11.73;;;;;;;28.07;32.75;101351.56;1651606;86;21727;-90
2021/04/23 05:35:43;;;;;;;23.92;11.48;;;;;;;28.57;32.24;101350.50;1651950;86;21833;-95
2021/04/23 05:38:11;;;;;;;26.17;12.23;;;;;;;27.59;34.53;101342.48;1651441;86;21171;-94
2021/04/23 05:40:45;;;;;;;27.05;11.93;;;;;;;28.13;34.41;101352.68;1651932;86;21784;-95
2021/04/23 05:43:15;;;;;;;22.65;11.18;;;;;;;28.14;34.43;101355.08;1651865;86;21490;-93
2021/04/23 05:45:45;;;;;;;20.72;10.65;;;;;;;28.55;33.98;101345.90;1651762;86;21688;-92
2021/04/23 05:48:14;;;;;;;20.12;10.78;;;;;;;29.46;31.22;101350.03;1617539;86;21263;-95
2021/04/23 05:50:41;;;;;;;19.55;9.83;;;;;;;29.68;31.96;101337.34;1651613;86;21204;-93
2021/04/23 05:53:07;;;;;;;20.15;10.13;;;;;;;29.37;31.42;101339.17;1651543;86;21160;-92
2021/04/23 05:55:35;;;;;;;15.18;9.50;;;;;;;29.18;30.32;101337.86;1651721;86;21137;-91
2021/04/23 05:58:04;;;;;;;19.50;10.25;;;;;;;28.08;30.62;101346.23;1651544;86;21169;-92
2021/04/23 06:00:33;;;;;;;20.55;9.58;;;;;;;29.17;31.05;101339.01;1651399;86;21676;-92
2021/04/23 06:03:03;;;;;;;15.98;8.93;;;;;;;29.07;32.11;101340.42;1651201;86;21211;-92
2021/04/23 06:05:31;;;;;;;20.52;9.00;;;;;;;29.45;33.31;101339.31;1651484;86;21489;-92
2021/04/23 06:08:01;;;;;;;15.85;9.33;;;;;;;30.87;30.02;101338.41;1651698;86;21562;-93
2021/04/23 06:10:28;;;;;;;15.85;9.18;;;;;;;31.54;28.94;101336.09;1651534;86;21100;-92
2021/04/23 06:12:55;;;;;;;15.68;8.65;;;;;;;32.45;27.18;101327.34;1651620;86;21274;-92
2021/04/23 06:15:22;;;;;;;12.45;8.08;;;;;;;32.10;27.53;101324.55;1651562;86;21180;-92
2021/04/23 06:17:48;;;;;;;14.23;7.75;;;;;;;32.14;26.42;101327.36;1598654;88;21537;-91
2021/04/23 06:20:20;;;;;;;14.38;7.25;;;;;;;30.65;28.45;101331.74;1619571;88;21152;-92
2021/04/23 06:22:47;;;;;;;;;;;;;;;29.76;29.47;101332.69;1622331;88;21257;-91
2021/04/23 06:25:15;;;;;;;14.55;7.62;;;;;;;29.12;29.50;101333.75;1630620;88;21167;-92
2021/04/23 06:27:43;;;;;;;13.18;8.43;;;;;;;29.47;28.58;101325.83;1630556;88;21213;-91
2021/04/23 06:30:14;;;;;;;13.05;7.37;;;;;;;28.42;29.87;101324.45;1621874;88;21251;-91
2021/04/23 06:32:44;;;;;;;13.08;7.87;;;;;;;27.39;31.81;101326.35;1622031;88;21585;-90
2021/04/23 06:35:17;;;;;;;11.33;7.28;;;;;;;26.65;32.89;101333.38;1684422;84;21175;-89
2021/04/23 06:37:45;;;;;;;19.75;8.00;;;;;;;27.54;30.36;101326.13;1685664;85;21232;-90
2021/04/23 06:40:12;;;;;;;12.68;6.78;;;;;;;26.98;32.54;101324.84;1706196;84;21155;-89
2021/04/23 06:42:39;;;;;;;14.05;8.30;;;;;;;27.11;30.99;101333.88;1716089;83;21179;-89
2021/04/23 06:45:09;;;;;;;12.73;8.03;;;;;;;26.18;32.64;101334.77;1706285;84;21219;-90
2021/04/23 06:47:37;;;;;;;13.68;7.03;;;;;;;26.77;33.92;101331.15;1660822;85;21584;-90
2021/04/23 06:50:07;;;;;;;13.58;6.50;;;;;;;28.29;31.73;101327.89;1660483;85;21259;-91
2021/04/23 06:52:34;;;;;;;10.25;6.35;;;;;;;29.30;30.19;101326.56;1694446;84;21648;-90
2021/04/23 06:55:00;;;;;;;12.28;6.75;;;;;;;30.04;29.14;101319.23;1694381;84;22350;-90
2021/04/23 06:57:27;;;;;;;8.95;6.22;;;;;;;30.42;28.68;101322.15;1694526;84;21236;-92
2021/04/23 06:59:53;;;;;;;12.63;5.95;;;;;;;31.83;27.18;101319.78;1694491;84;21128;-91
2021/04/23 07:02:19;;;;;;;10.25;6.10;;;;;;;31.46;26.52;101317.11;1694365;84;22521;-89
2021/04/23 07:04:45;;;;;;;7.55;5.92;;;;;;;31.88;26.55;101319.40;1694244;84;21268;-90
2021/04/23 07:07:11;;;;;;;8.13;5.20;;;;;;;33.36;24.32;101309.62;1694381;84;21052;-93
2021/04/23 07:09:37;;;;;;;7.90;5.62;;;;;;;34.21;22.99;101315.72;1694585;84;21068;-91
2021/04/23 07:12:04;;;;;;;10.40;5.62;;;;;;;32.52;25.50;101308.43;1694426;84;20982;-91
2021/04/23 07:14:29;;;;;;;8.40;6.03;;;;;;;33.73;24.12;101312.00;1694346;84;21164;-91
2021/04/23 07:16:56;;;;;;;7.33;5.20;;;;;;;34.19;23.68;101309.72;1694217;84;20938;-91
2021/04/23 07:19:22;;;;;;;8.35;5.53;;;;;;;34.45;23.44;101312.62;1739664;81;21175;-91
2021/04/23 07:21:48;;;;;;;6.97;5.25;;;;;;;35.29;21.91;101298.32;1757116;80;21148;-91
2021/04/23 07:24:14;;;;;;;11.10;5.12;;;;;;;34.69;22.46;101310.92;1781488;80;20950;-91
2021/04/23 07:26:40;;;;;;;9.45;5.20;;;;;;;35.40;20.72;101299.82;1781446;80;21328;-90
2021/04/23 07:29:06;;;;;;;7.28;5.40;;;;;;;34.51;22.07;101301.80;1781384;80;20941;-90
2021/04/23 07:31:32;;;;;;;8.75;5.40;;;;;;;33.33;23.59;101301.44;1781400;80;21072;-91
2021/04/23 07:33:59;;;;;;;8.18;5.10;;;;;;;35.29;21.24;101295.52;1781283;80;21067;-90
2021/04/23 07:36:25;;;;;;;9.68;5.47;;;;;;;34.33;22.56;101297.08;1781507;80;21112;-91
2021/04/23 07:38:51;;;;;;;7.08;4.85;;;;;;;33.52;23.71;101294.66;1781407;80;21268;-90
2021/04/23 07:41:17;;;;;;;6.37;5.00;;;;;;;34.54;22.31;101296.78;1781389;80;21487;-90
2021/04/23 07:43:43;;;;;;;5.45;4.58;;;;;;;33.18;23.40;101281.08;1781425;80;20953;-91
2021/04/23 07:46:09;;;;;;;8.13;4.70;;;;;;;34.56;20.99;101291.00;1781249;80;21577;-90
2021/04/23 07:48:35;;;;;;;5.53;4.58;;;;;;;33.10;21.78;101292.64;1781314;80;21152;-90
2021/04/23 07:51:02;;;;;;;7.37;5.28;;;;;;;31.88;24.03;101285.15;1781540;80;21219;-90
2021/04/23 07:53:28;;;;;;;6.83;5.40;;;;;;;32.10;23.67;101283.32;1781629;80;21133;-91
2021/04/23 07:55:54;;;;;;;8.20;5.08;;;;;;;31.84;23.76;101279.55;1781532;80;21549;-90
2021/04/23 07:58:21;;;;;;;8.03;4.92;;;;;;;31.67;24.85;101278.84;1781583;80;21184;-89
2021/04/23 08:00:47;;;;;;;9.38;5.10;;;;;;;32.81;22.89;101278.61;1781584;80;21168;-90
2021/04/23 08:03:13;;;;;;;9.08;4.67;;;;;;;32.20;23.90;101282.56;1781675;80;21568;-90
2021/04/23 08:05:39;;;;;;;6.87;4.78;;;;;;;32.26;23.66;101272.62;1781601;80;21033;-90
2021/04/23 08:08:07;;;;;;;8.75;5.10;;;;;;;33.53;22.63;101278.67;1781745;80;21160;-91
2021/04/23 08:10:35;;;;;;;7.05;4.55;;;;;;;33.03;22.02;101273.86;1750954;80;21144;-91
2021/04/23 08:13:03;;;;;;;6.95;4.72;;;;;;;33.95;23.38;101272.21;1781701;80;21168;-90
2021/04/23 08:15:29;;;;;;;5.50;4.45;;;;;;;35.16;21.42;101265.81;1750848;80;21160;-90
2021/04/23 08:17:57;;;;;;;5.70;4.10;;;;;;;34.96;21.33;101265.53;1781570;80;21168;-94
2021/04/23 08:20:24;;;;;;;7.42;5.25;;;;;;;35.02;21.19;101256.27;1781565;80;21184;-93
2021/04/23 08:22:50;;;;;;;7.03;5.58;;;;;;;34.09;22.38;101262.41;1779076;80;21184;-93
2021/04/23 08:25:18;;;;;;;5.70;4.72;;;;;;;36.06;20.64;101262.34;1787117;80;21139;-92
2021/04/23 08:27:45;;;;;;;5.78;5.00;;;;;;;35.55;21.16;101259.06;1787035;80;21146;-92
2021/04/23 08:30:13;;;;;;;6.65;5.47;;;;;;;36.88;18.83;101266.01;1786961;80;21140;-91
2021/04/23 08:32:40;;;;;;;10.18;5.53;;;;;;;35.48;20.45;101254.30;1787084;80;21143;-92
2021/04/23 08:35:08;;;;;;;10.03;5.00;;;;;;;34.70;21.21;101255.09;1787032;80;21108;-91
2021/04/23 08:37:35;;;;;;;7.33;4.37;;;;;;;34.84;21.06;101263.22;1782532;80;21556;-92
2021/04/23 08:40:04;;;;;;;7.50;4.60;;;;;;;34.50;20.87;101256.18;1787148;79;21667;-92
2021/04/23 08:42:31;;;;;;;5.20;4.50;;;;;;;35.65;19.70;101254.76;1787127;80;21176;-91
2021/04/23 08:44:59;;;;;;;9.90;4.60;;;;;;;34.37;21.24;101256.47;1787184;80;21199;-92
2021/04/23 08:47:25;;;;;;;6.75;4.50;;;;;;;34.63;21.34;101254.36;1787021;80;21085;-91
2021/04/23 08:49:55;;;;;;;7.85;4.60;;;;;;;35.50;18.68;101251.86;1787068;80;21636;-90
2021/04/23 08:52:21;;;;;;;5.42;4.42;;;;;;;33.98;20.57;101253.82;1783228;80;22055;-91
2021/04/23 08:54:47;;;;;;;9.70;5.25;;;;;;;32.85;22.05;101252.87;1782042;80;20942;-90
2021/04/23 08:57:13;;;;;;;9.55;4.95;;;;;;;34.21;20.49;101252.77;1787136;79;21023;-92
2021/04/23 08:59:39;;;;;;;14.50;4.28;;;;;;;32.49;22.72;101257.59;1787118;80;21020;-90
2021/04/23 09:02:05;;;;;;;5.20;4.28;;;;;;;33.28;21.61;101254.92;1787290;80;20946;-93
2021/04/23 09:04:31;;;;;;;6.25;4.58;;;;;;;33.65;21.47;101256.70;1787249;80;21956;-90
2021/04/23 09:07:07;;;;;;;9.65;4.22;;;;;;;32.18;22.42;101247.88;1787283;80;21017;-92
2021/04/23 09:09:42;;;;;;;4.60;4.00;;;;;;;32.96;22.26;101252.28;1752133;81;21167;-90
2021/04/23 09:12:26;;;;;;;6.97;4.28;;;;;;;32.26;23.26;101247.51;1725041;83;21121;-92
2021/04/23 09:14:55;;;;;;;11.00;4.85;;;;;;;31.93;22.29;101251.36;1689963;84;21143;-92
2021/04/23 09:17:25;;;;;;;5.97;4.28;;;;;;;31.89;24.36;101243.55;1725160;83;22245;-92
2021/04/23 09:19:53;;;;;;;10.38;5.28;;;;;;;33.57;21.04;101243.94;1689912;84;21255;-91
2021/04/23 09:22:26;;;;;;;6.70;4.42;;;;;;;32.13;23.20;101239.30;1724399;83;21182;-92
2021/04/23 09:25:12;;;;;;;5.83;3.62;;;;;;;33.43;21.31;101226.55;1720869;83;21237;-88
2021/04/23 09:27:42;;;;;;;21.55;4.60;;;;;;;32.71;21.26;101226.33;1720943;83;21082;-88
2021/04/23 09:30:12;;;;;;;11.25;4.28;;;;;;;32.49;21.33;101224.10;1683890;85;22511;-87
2021/04/23 09:32:41;;;;;;;5.62;3.80;;;;;;;31.50;23.74;101223.20;1683839;85;21128;-87
2021/04/23 09:35:19;;;;;;;6.37;4.40;;;;;;;33.09;20.91;101213.64;1684039;85;21818;-87
2021/04/23 09:37:49;;;;;;;6.35;4.15;;;;;;;32.29;22.68;101218.83;1684107;85;21211;-87
2021/04/23 09:40:31;;;;;;;4.95;3.85;;;;;;;32.97;21.61;101221.79;1684110;85;21610;-87
2021/04/23 09:43:04;;;;;;;6.72;4.60;;;;;;;31.57;23.45;101212.11;1684224;85;21243;-86
2021/04/23 09:45:50;;;;;;;10.28;4.28;;;;;;;31.67;22.77;101209.17;1683882;85;21668;-86
2021/04/23 09:48:22;;;;;;;9.93;4.33;;;;;;;31.02;23.94;101200.14;1683085;85;21160;-88
2021/04/23 09:50:50;;;;;;;9.15;3.95;;;;;;;30.23;23.93;101195.16;1684056;85;21163;-87
2021/04/23 09:53:16;;;;;;;6.50;4.25;;;;;;;29.64;25.35;101205.89;1684057;85;21109;-87
2021/04/23 09:55:42;;;;;;;7.35;4.58;;;;;;;29.87;24.84;101191.92;1683872;85;21259;-87
2021/04/23 09:58:10;;;;;;;9.85;4.08;;;;;;;29.69;24.88;101189.50;1683947;85;21661;-86
2021/04/23 10:03:08;;;;;;;7.62;4.50;;;;;;;28.95;24.81;101199.83;1547388;92;21296;-85
2021/04/23 10:05:43;;;;;;;9.80;4.45;;;;;;;28.12;26.42;101186.97;1542492;92;21516;-86
2021/04/23 10:08:25;;;;;;;6.58;4.25;;;;;;;27.94;27.09;101185.20;1529339;92;21342;-87
2021/04/23 10:10:55;;;;;;;8.70;4.00;;;;;;;28.40;25.55;101197.01;1554040;92;21250;-87
2021/04/23 10:13:33;;;;;;;6.92;4.33;;;;;;;27.49;26.62;101192.69;1476726;97;21363;-87
2021/04/23 10:16:00;;;;;;;8.15;4.03;;;;;;;26.79;27.75;101180.88;1476963;97;21201;-86
2021/04/23 10:18:26;;;;;;;7.83;5.12;;;;;;;26.41;28.88;101173.92;1455480;97;21262;-87
2021/04/23 10:20:59;;;;;;;6.12;4.30;;;;;;;26.18;29.56;101159.31;1451416;98;22079;-86
2021/04/23 10:23:25;;;;;;;8.15;4.80;;;;;;;25.79;29.33;101165.84;1460119;98;21190;-86
2021/04/23 10:25:54;;;;;;;9.03;3.98;;;;;;;25.87;29.86;101159.20;1482014;96;21041;-86
2021/04/23 10:28:27;;;;;;;7.12;4.25;;;;;;;25.58;30.07;101171.53;1481894;96;21191;-87
2021/04/23 10:30:55;;;;;;;;;;;;;;;25.53;30.05;101152.47;1470790;97;21567;-86
2021/04/23 10:33:24;;;;;;;6.97;4.37;;;;;;;25.45;31.52;101157.53;1468508;97;21244;-88
2021/04/23 10:35:55;;;;;;;10.28;4.58;;;;;;;25.28;32.41;101150.30;1468428;97;21201;-86
2021/04/23 10:38:27;;;;;;;6.40;4.20;;;;;;;25.25;32.84;101151.57;1468477;97;21539;-86
2021/04/23 10:41:00;;;;;;;7.22;4.17;;;;;;;25.17;32.32;101131.22;1468517;97;21261;-86
2021/04/23 10:43:26;;;;;;;;;;;;;;;25.30;32.89;101131.45;1477009;93;21251;-86
2021/04/23 10:48:42;;;;;;;8.63;3.92;;;;;;;25.25;32.76;101137.20;1522153;94;21310;-86
2021/04/23 10:51:20;;;;;;;6.92;4.53;;;;;;;25.67;31.93;101123.08;1545355;92;21275;-86
2021/04/23 10:53:56;;;;;;;10.82;3.75;;;;;;;25.68;32.43;101123.33;1545431;92;21231;-87
2021/04/23 10:56:37;;;;;;;11.38;4.72;;;;;;;25.89;32.47;101120.99;1524825;89;21662;-86
2021/04/23 10:59:32;;;;;;;9.00;4.00;;;;;;;25.37;33.03;101127.52;1602980;88;21288;-86
2021/04/23 11:02:17;;;;;;;6.37;4.10;;;;;;;25.24;32.76;101119.62;1627438;88;21300;-87
2021/04/23 11:04:58;;;;;;;11.55;4.45;;;;;;;25.04;33.60;101117.98;1627366;88;21275;-87
2021/04/23 11:07:25;;;;;;;6.65;4.33;;;;;;;25.09;33.14;101108.11;1627323;88;21545;-88
2021/04/23 11:10:00;;;;;;;9.88;4.30;;;;;;;24.90;34.15;101100.98;1627370;88;21187;-86
2021/04/23 11:12:27;;;;;;;8.90;4.25;;;;;;;25.30;32.89;101094.20;1574569;91;21336;-86
2021/04/23 11:15:13;;;;;;;8.80;4.50;;;;;;;24.86;33.30;101098.11;1574332;91;21292;-86
2021/04/23 11:17:39;;;;;;;9.30;3.85;;;;;;;24.67;34.53;101082.70;1479592;97;21241;-85
2021/04/23 11:20:30;;;;;;;10.35;3.95;;;;;;;24.22;33.89;101082.95;1502837;95;21625;-86
2021/04/23 11:22:59;;;;;;;7.12;3.77;;;;;;;24.08;33.25;101089.91;1500036;94;21193;-86
2021/04/23 11:25:26;;;;;;;7.85;3.75;;;;;;;24.01;32.72;101091.27;1488035;95;21367;-86
2021/04/23 11:28:08;;;;;;;9.60;3.58;;;;;;;24.14;33.12;101075.58;1486258;95;21292;-86